createdAt,value
2022-12-08T00:00:51.327Z,3.36
2022-12-08T00:03:21.039Z,3.37
2022-12-08T00:06:04.386Z,3.36
2022-12-08T00:08:46.446Z,3.31
2022-12-08T00:11:16.478Z,3.34
2022-12-08T00:13:45.969Z,3.28
2022-12-08T00:16:18.052Z,3.22
2022-12-08T00:18:47.807Z,3.28
2022-12-08T00:21:17.362Z,3.18
2022-12-08T00:23:47.112Z,3.09
2022-12-08T00:26:16.615Z,3.15
2022-12-08T00:28:46.174Z,3.15
2022-12-08T00:31:18.322Z,3.16
2022-12-08T00:33:48.004Z,3.11
2022-12-08T00:36:18.218Z,3.15
2022-12-08T00:38:48.455Z,3.21
2022-12-08T00:41:40.013Z,3.26
2022-12-08T00:44:09.909Z,3.29
2022-12-08T00:46:42.369Z,3.29
2022-12-08T00:49:12.501Z,3.30
2022-12-08T00:51:42.105Z,3.29
2022-12-08T00:54:11.887Z,3.36
2022-12-08T00:56:41.530Z,3.32
2022-12-08T00:59:11.275Z,3.34
2022-12-08T01:01:43.929Z,3.22
2022-12-08T01:04:15.563Z,3.30
2022-12-08T01:06:46.115Z,3.20
2022-12-08T01:09:17.885Z,3.17
2022-12-08T01:11:47.916Z,3.20
2022-12-08T01:14:17.822Z,3.18
2022-12-08T01:16:50.185Z,3.18
2022-12-08T01:19:20.562Z,3.12
2022-12-08T01:21:50.395Z,3.14
2022-12-08T01:24:22.198Z,3.14
2022-12-08T01:26:52.855Z,3.11
2022-12-08T01:29:22.492Z,2.94
2022-12-08T01:31:54.567Z,2.98
2022-12-08T01:34:24.113Z,2.87
2022-12-08T01:36:53.761Z,2.91
2022-12-08T01:39:23.331Z,2.84
2022-12-08T01:41:52.886Z,2.74
2022-12-08T01:44:52.539Z,2.64
2022-12-08T01:47:26.840Z,2.63
2022-12-08T01:49:56.513Z,2.61
2022-12-08T01:52:29.498Z,2.56
2022-12-08T01:55:03.324Z,2.58
2022-12-08T01:57:37.634Z,2.57
2022-12-08T02:00:10.534Z,2.48
2022-12-08T02:02:52.748Z,2.47
2022-12-08T02:05:25.050Z,2.46
2022-12-08T02:07:55.197Z,2.45
2022-12-08T02:10:26.703Z,2.40
2022-12-08T02:12:59.235Z,2.40
2022-12-08T02:15:36.711Z,2.43
2022-12-08T02:18:23.290Z,2.44
2022-12-08T02:20:59.529Z,2.41
2022-12-08T02:23:39.340Z,2.41
2022-12-08T02:26:41.567Z,2.41
2022-12-08T02:29:38.357Z,2.51
2022-12-08T02:32:26.549Z,2.45
2022-12-08T02:35:02.326Z,2.52
2022-12-08T02:37:37.238Z,2.53
2022-12-08T02:40:16.636Z,2.43
2022-12-08T02:42:49.715Z,2.43
2022-12-08T02:45:25.305Z,2.48
2022-12-08T02:47:55.409Z,2.45
2022-12-08T02:50:27.555Z,2.47
2022-12-08T02:52:57.778Z,2.53
2022-12-08T02:55:30.338Z,2.57
2022-12-08T02:58:14.227Z,2.67
2022-12-08T03:01:00.008Z,2.68
2022-12-08T03:03:38.044Z,2.72
2022-12-08T03:06:19.663Z,2.71
2022-12-08T03:08:54.427Z,2.73
2022-12-08T03:11:27.482Z,2.72
2022-12-08T03:14:02.085Z,2.73
2022-12-08T03:16:33.577Z,2.73
2022-12-08T03:19:06.327Z,2.74
2022-12-08T03:21:38.680Z,2.76
2022-12-08T03:24:12.656Z,2.79
2022-12-08T03:26:48.539Z,2.85
2022-12-08T03:29:18.234Z,2.86
2022-12-08T03:31:55.542Z,2.88
2022-12-08T03:34:28.285Z,2.85
2022-12-08T03:37:02.862Z,2.83
2022-12-08T03:39:32.369Z,2.87
2022-12-08T03:42:01.946Z,2.79
2022-12-08T03:44:31.726Z,2.76
2022-12-08T03:47:01.308Z,2.78
2022-12-08T03:49:30.860Z,2.71
2022-12-08T03:52:03.057Z,2.72
2022-12-08T03:54:32.591Z,2.73
2022-12-08T03:57:02.173Z,2.74
2022-12-08T03:59:31.697Z,2.81
2022-12-08T04:02:01.292Z,2.85
2022-12-08T04:04:31.197Z,2.80
2022-12-08T04:07:03.362Z,2.79
2022-12-08T04:09:33.067Z,2.82
2022-12-08T04:12:02.612Z,2.82
2022-12-08T04:14:32.243Z,2.80
2022-12-08T04:17:01.820Z,2.79
2022-12-08T04:19:31.580Z,2.81
2022-12-08T04:22:03.689Z,2.84
2022-12-08T04:24:33.166Z,2.81
2022-12-08T04:27:02.701Z,2.74
2022-12-08T04:29:32.230Z,2.76
2022-12-08T04:32:01.701Z,2.69
2022-12-08T04:34:31.183Z,2.71
2022-12-08T04:37:03.242Z,2.76
2022-12-08T04:39:32.718Z,2.76
2022-12-08T04:42:02.322Z,2.86
2022-12-08T04:44:31.783Z,2.90
2022-12-08T04:47:01.367Z,2.84
2022-12-08T04:49:30.959Z,2.87
2022-12-08T04:52:03.062Z,2.90
2022-12-08T04:54:32.679Z,2.95
2022-12-08T04:57:02.189Z,2.89
2022-12-08T04:59:31.709Z,2.91
2022-12-08T05:02:01.373Z,2.87
2022-12-08T05:04:30.993Z,2.90
2022-12-08T05:07:03.045Z,2.86
2022-12-08T05:09:32.703Z,2.90
2022-12-08T05:12:02.221Z,2.81
2022-12-08T05:14:31.733Z,2.79
2022-12-08T05:17:06.249Z,2.76
2022-12-08T05:19:38.750Z,2.84
2022-12-08T05:22:10.789Z,2.90
2022-12-08T05:24:47.009Z,2.88
2022-12-08T05:27:17.063Z,2.87
2022-12-08T05:29:48.150Z,2.83
2022-12-08T05:32:17.664Z,2.86
2022-12-08T05:34:47.318Z,2.85
2022-12-08T05:37:19.453Z,2.84
2022-12-08T05:39:49.029Z,2.87
2022-12-08T05:42:24.382Z,2.86
2022-12-08T05:44:54.393Z,2.95
2022-12-08T05:47:23.896Z,2.83
2022-12-08T05:49:53.402Z,2.80
2022-12-08T05:52:25.507Z,2.84
2022-12-08T05:54:55.006Z,2.89
2022-12-08T05:57:24.581Z,2.99
2022-12-08T05:59:54.145Z,3.00
2022-12-08T06:02:23.785Z,2.94
2022-12-08T06:04:53.362Z,2.93
2022-12-08T06:07:25.529Z,3.00
2022-12-08T06:09:55.107Z,2.95
2022-12-08T06:12:24.627Z,3.00
2022-12-08T06:14:54.331Z,3.03
2022-12-08T06:17:23.936Z,3.08
2022-12-08T06:19:53.426Z,3.00
2022-12-08T06:22:25.497Z,3.02
2022-12-08T06:24:55.054Z,3.00
2022-12-08T06:27:24.589Z,3.01
2022-12-08T06:29:54.187Z,3.00
2022-12-08T06:32:27.397Z,3.03
2022-12-08T06:34:57.632Z,2.89
2022-12-08T06:37:30.010Z,2.96
2022-12-08T06:39:59.655Z,2.97
2022-12-08T06:42:41.674Z,2.95
2022-12-08T06:45:13.066Z,2.82
2022-12-08T06:47:42.651Z,2.86
2022-12-08T06:50:15.867Z,2.83
2022-12-08T06:53:00.775Z,2.95
2022-12-08T06:58:24.116Z,2.96
2022-12-08T07:00:53.879Z,2.96
2022-12-08T07:03:23.696Z,2.96
2022-12-08T07:05:53.409Z,2.96
2022-12-08T07:08:25.893Z,2.81
2022-12-08T07:10:55.579Z,2.84
2022-12-08T07:13:25.201Z,2.79
2022-12-08T07:15:55.082Z,2.73
2022-12-08T07:18:24.700Z,2.70
2022-12-08T07:20:54.241Z,2.83
2022-12-08T07:23:26.368Z,2.83
2022-12-08T07:25:55.969Z,2.76
2022-12-08T07:28:25.624Z,2.69
2022-12-08T07:30:55.196Z,2.67
2022-12-08T07:33:24.814Z,2.73
2022-12-08T07:35:58.395Z,2.81
2022-12-08T07:38:31.643Z,2.77
2022-12-08T07:41:02.587Z,2.79
2022-12-08T07:43:32.172Z,2.65
2022-12-08T07:46:01.843Z,2.66
2022-12-08T07:48:31.355Z,2.61
2022-12-08T07:51:03.627Z,2.64
2022-12-08T07:53:36.002Z,2.72
2022-12-08T07:56:08.776Z,2.74
2022-12-08T07:58:38.139Z,2.69
2022-12-08T08:01:08.302Z,2.75
2022-12-08T08:03:38.069Z,2.75
2022-12-08T08:06:08.506Z,2.90
2022-12-08T08:08:40.600Z,2.97
2022-12-08T08:11:18.938Z,2.91
2022-12-08T08:13:50.734Z,2.78
2022-12-08T08:16:21.611Z,2.80
2022-12-08T08:18:51.872Z,2.80
2022-12-08T08:24:15.682Z,2.90
2022-12-08T08:26:45.250Z,2.93
2022-12-08T08:29:14.856Z,2.99
2022-12-08T08:31:44.429Z,2.86
2022-12-08T08:34:14.147Z,2.85
2022-12-08T08:36:43.935Z,2.95
2022-12-08T08:39:16.236Z,3.01
2022-12-08T08:41:46.086Z,3.14
2022-12-08T08:44:16.173Z,3.02
2022-12-08T08:46:45.776Z,3.10
2022-12-08T08:49:15.387Z,3.22
2022-12-08T08:51:45.199Z,3.01
2022-12-08T08:54:17.386Z,3.16
2022-12-08T08:56:48.270Z,3.23
2022-12-08T08:59:17.954Z,3.20
2022-12-08T09:01:47.600Z,3.12
2022-12-08T09:04:17.423Z,3.29
2022-12-08T09:06:48.136Z,3.24
2022-12-08T09:09:20.829Z,3.19
2022-12-08T09:11:50.149Z,3.37
2022-12-08T09:14:19.651Z,3.16
2022-12-08T09:16:49.226Z,3.26
2022-12-08T09:19:18.774Z,3.47
2022-12-08T09:21:48.507Z,3.47
2022-12-08T09:24:20.622Z,3.41
2022-12-08T09:26:50.176Z,3.19
2022-12-08T09:29:19.992Z,3.39
2022-12-08T09:31:49.728Z,3.25
2022-12-08T09:34:19.713Z,3.37
2022-12-08T09:36:49.773Z,3.68
2022-12-08T09:39:22.682Z,3.42
2022-12-08T09:42:01.483Z,3.47
2022-12-08T09:44:44.833Z,3.49
2022-12-08T09:47:23.996Z,3.55
2022-12-08T09:50:04.508Z,3.55
2022-12-08T09:52:39.201Z,3.48
2022-12-08T09:55:18.300Z,3.57
2022-12-08T09:57:53.076Z,3.52
2022-12-08T10:00:25.997Z,3.70
2022-12-08T10:02:55.546Z,3.62
2022-12-08T10:05:26.996Z,3.71
2022-12-08T10:08:06.554Z,3.58
2022-12-08T10:10:44.550Z,3.84
2022-12-08T10:13:22.227Z,3.64
2022-12-08T10:16:00.300Z,3.66
2022-12-08T10:18:32.983Z,3.54
2022-12-08T10:21:18.881Z,3.60
2022-12-08T10:23:52.898Z,3.57
2022-12-08T10:26:25.188Z,3.69
2022-12-08T10:29:01.148Z,3.68
2022-12-08T10:31:32.712Z,3.73
2022-12-08T10:34:04.438Z,3.65
2022-12-08T10:36:48.922Z,3.59
2022-12-08T10:39:36.124Z,3.75
2022-12-08T10:42:11.647Z,3.66
2022-12-08T10:44:55.827Z,3.77
2022-12-08T10:47:28.232Z,3.61
2022-12-08T10:50:15.098Z,3.91
2022-12-08T10:52:44.601Z,3.88
2022-12-08T10:55:19.450Z,3.77
2022-12-08T10:57:51.718Z,4.05
2022-12-08T11:00:23.923Z,3.77
2022-12-08T11:02:56.746Z,3.67
2022-12-08T11:05:30.569Z,4.08
2022-12-08T11:08:00.426Z,4.02
2022-12-08T11:10:37.087Z,3.93
2022-12-08T11:13:19.981Z,4.04
2022-12-08T11:15:49.734Z,4.04
2022-12-08T11:18:28.734Z,4.18
2022-12-08T11:21:09.673Z,3.84
2022-12-08T11:23:40.412Z,3.99
2022-12-08T11:26:19.285Z,4.02
2022-12-08T11:28:51.387Z,3.66
2022-12-08T11:31:30.382Z,3.95
2022-12-08T11:34:00.005Z,3.99
2022-12-08T11:36:34.214Z,4.00
2022-12-08T11:39:07.215Z,3.91
2022-12-08T11:41:41.585Z,4.06
2022-12-08T11:44:28.501Z,4.16
2022-12-08T11:47:00.940Z,4.26
2022-12-08T11:49:37.020Z,4.15
2022-12-08T11:52:15.661Z,4.14
2022-12-08T11:54:50.671Z,4.26
2022-12-08T11:57:20.947Z,4.26
2022-12-08T11:59:54.795Z,4.22
2022-12-08T12:02:27.371Z,4.01
2022-12-08T12:05:02.133Z,4.22
2022-12-08T12:07:49.082Z,4.29
2022-12-08T12:10:39.697Z,4.20
2022-12-08T12:13:22.009Z,4.24
2022-12-08T12:16:38.593Z,4.34
2022-12-08T12:19:14.913Z,4.25
2022-12-08T12:21:47.431Z,3.97
2022-12-08T12:24:26.068Z,3.84
2022-12-08T12:27:02.318Z,3.78
2022-12-08T12:29:34.929Z,4.00
2022-12-08T12:32:11.446Z,3.97
2022-12-08T12:34:51.060Z,3.86
2022-12-08T12:37:24.376Z,3.80
2022-12-08T12:40:00.963Z,3.72
2022-12-08T12:42:44.769Z,3.63
2022-12-08T12:45:32.490Z,3.81
2022-12-08T12:48:27.341Z,3.64
2022-12-08T12:50:57.895Z,3.81
2022-12-08T12:53:52.938Z,3.88
2022-12-08T12:56:50.919Z,3.86
2022-12-08T13:00:08.629Z,3.78
2022-12-08T13:02:41.628Z,3.87
2022-12-08T13:05:19.357Z,3.87
2022-12-08T13:07:55.366Z,3.96
2022-12-08T13:10:28.733Z,3.95
2022-12-08T13:13:17.755Z,3.69
2022-12-08T13:15:53.436Z,3.77
2022-12-08T13:18:26.579Z,3.75
2022-12-08T13:21:08.044Z,3.70
2022-12-08T13:23:49.859Z,3.66
2022-12-08T13:26:22.725Z,3.74
2022-12-08T13:29:17.732Z,3.81
2022-12-08T13:31:51.261Z,3.68
2022-12-08T13:34:32.855Z,3.73
2022-12-08T13:37:20.810Z,3.61
2022-12-08T13:39:54.775Z,3.65
2022-12-08T13:42:32.168Z,3.68
2022-12-08T13:57:06.865Z,3.63
2022-12-08T13:59:46.578Z,3.54
2022-12-08T14:02:20.699Z,3.42
2022-12-08T14:07:42.773Z,3.53
2022-12-08T14:10:20.773Z,3.38
2022-12-08T14:12:57.626Z,3.42
2022-12-08T14:15:31.365Z,3.38
2022-12-08T14:18:05.586Z,3.33
2022-12-08T14:20:57.883Z,3.27
2022-12-08T14:23:26.402Z,3.26
2022-12-08T14:25:59.308Z,3.32
2022-12-08T14:28:28.852Z,3.17
2022-12-08T14:30:58.779Z,3.27
2022-12-08T14:33:29.089Z,3.36
2022-12-08T14:35:59.421Z,3.29
2022-12-08T14:38:29.392Z,3.32
2022-12-08T14:41:09.544Z,3.37
2022-12-08T14:43:41.057Z,3.46
2022-12-08T14:46:23.322Z,3.44
2022-12-08T14:48:53.678Z,3.48
2022-12-08T14:51:30.245Z,3.40
2022-12-08T14:54:02.202Z,3.40
2022-12-08T14:56:39.521Z,3.37
2022-12-08T14:59:15.312Z,3.40
2022-12-08T15:01:45.794Z,3.31
2022-12-08T15:04:21.496Z,3.44
2022-12-08T15:06:55.680Z,3.40
2022-12-08T15:12:08.942Z,3.41
2022-12-08T15:14:39.984Z,3.41
2022-12-08T15:20:04.484Z,3.30
2022-12-08T15:22:34.506Z,3.24
2022-12-08T15:25:04.688Z,3.28
2022-12-08T15:27:49.579Z,3.27
2022-12-08T15:30:20.942Z,3.26
2022-12-08T15:32:52.380Z,3.23
2022-12-08T15:35:22.553Z,3.27
2022-12-08T15:37:52.065Z,3.20
2022-12-08T15:40:27.040Z,3.17
2022-12-08T15:42:59.156Z,3.09
2022-12-08T15:45:33.655Z,2.94
2022-12-08T15:48:03.632Z,2.94
2022-12-08T15:50:33.170Z,2.96
2022-12-08T15:53:02.743Z,2.99
2022-12-08T15:55:38.490Z,3.03
2022-12-08T15:58:53.157Z,3.19
2022-12-08T16:01:16.356Z,3.08
2022-12-08T16:09:32.984Z,2.99
2022-12-08T16:12:15.263Z,3.04
2022-12-08T16:15:47.223Z,3.14
2022-12-08T16:17:38.258Z,3.28
2022-12-08T16:20:09.825Z,3.30
2022-12-08T16:23:07.602Z,3.28
2022-12-08T16:25:46.028Z,3.28
2022-12-08T16:28:52.166Z,3.29
2022-12-08T16:31:17.742Z,3.17
2022-12-08T16:33:50.960Z,2.98
2022-12-08T16:36:20.506Z,3.01
2022-12-08T16:38:50.005Z,2.90
2022-12-08T16:41:33.288Z,2.88
2022-12-08T16:44:05.191Z,2.71
2022-12-08T16:46:37.530Z,2.54
2022-12-08T16:49:07.324Z,2.50
2022-12-08T16:51:36.847Z,2.43
2022-12-08T16:54:06.458Z,2.36
2022-12-08T16:56:35.958Z,2.39
2022-12-08T16:59:05.463Z,2.41
2022-12-08T17:01:37.606Z,2.33
2022-12-08T17:04:30.953Z,2.28
2022-12-08T17:06:57.823Z,2.34
2022-12-08T17:09:28.573Z,2.44
2022-12-08T17:12:03.479Z,2.44
2022-12-08T17:14:35.469Z,2.44
2022-12-08T17:17:07.632Z,2.47
2022-12-08T17:19:37.259Z,2.44
2022-12-08T17:22:07.158Z,2.40
2022-12-08T17:24:36.690Z,2.34
2022-12-08T17:27:06.826Z,2.19
2022-12-08T17:29:37.214Z,2.08
2022-12-08T17:32:09.801Z,2.04
2022-12-08T17:34:39.327Z,2.05
2022-12-08T17:37:08.906Z,2.07
2022-12-08T17:39:39.360Z,1.99
2022-12-08T17:42:09.855Z,1.95
2022-12-08T17:44:39.545Z,1.96
2022-12-08T17:47:11.775Z,1.98
2022-12-08T17:49:41.520Z,2.06
2022-12-08T17:52:11.284Z,2.16
2022-12-08T17:54:41.278Z,2.17
2022-12-08T17:57:10.801Z,2.23
2022-12-08T17:59:40.575Z,2.09
2022-12-08T18:02:15.164Z,1.93
2022-12-08T18:04:44.768Z,1.87
2022-12-08T18:07:14.349Z,1.77
2022-12-08T18:09:43.929Z,1.71
2022-12-08T18:12:13.465Z,1.73
2022-12-08T18:14:43.076Z,1.69
2022-12-08T18:17:15.508Z,1.60
2022-12-08T18:19:45.036Z,1.63
2022-12-08T18:22:16.017Z,1.53
2022-12-08T18:24:47.630Z,1.56
2022-12-08T18:27:17.170Z,1.50
2022-12-08T18:29:46.801Z,1.53
2022-12-08T18:32:22.700Z,1.43
2022-12-08T18:34:52.496Z,1.41
2022-12-08T18:37:22.055Z,1.39
2022-12-08T18:39:51.716Z,1.39
2022-12-08T18:42:28.310Z,1.37
2022-12-08T18:45:02.787Z,1.31
2022-12-08T18:47:36.228Z,1.25
2022-12-08T18:50:06.611Z,1.24
2022-12-08T18:52:36.952Z,1.21
2022-12-08T18:55:07.777Z,1.24
2022-12-08T18:57:39.027Z,1.22
2022-12-08T19:00:12.227Z,1.21
2022-12-08T19:02:45.267Z,1.25
2022-12-08T19:05:16.054Z,1.33
2022-12-08T19:07:45.967Z,1.42
2022-12-08T19:10:16.143Z,1.44
2022-12-08T19:12:45.671Z,1.44
2022-12-08T19:15:15.426Z,1.40
2022-12-08T19:17:47.570Z,1.40
2022-12-08T19:20:17.422Z,1.44
2022-12-08T19:22:46.991Z,1.45
2022-12-08T19:25:16.465Z,1.46
2022-12-08T19:27:46.219Z,1.44
2022-12-08T19:30:17.194Z,1.33
2022-12-08T19:32:49.336Z,1.31
2022-12-08T19:35:19.083Z,1.21
2022-12-08T19:37:48.592Z,1.13
2022-12-08T19:40:30.853Z,1.07
2022-12-08T19:43:12.967Z,1.05
2022-12-08T19:45:42.507Z,1.03
2022-12-08T19:48:14.711Z,0.96
2022-12-08T19:50:44.191Z,0.94
2022-12-08T19:53:15.557Z,0.88
2022-12-08T19:55:46.753Z,0.89
2022-12-08T19:58:16.633Z,0.89
2022-12-08T20:00:46.681Z,0.86
2022-12-08T20:03:21.404Z,0.90
2022-12-08T20:05:53.290Z,0.91
2022-12-08T20:08:22.962Z,0.86
2022-12-08T20:10:56.121Z,0.93
2022-12-08T20:13:38.149Z,0.96
2022-12-08T20:16:08.594Z,1.01
2022-12-08T20:18:42.082Z,0.89
2022-12-08T20:21:12.699Z,0.83
2022-12-08T20:23:42.228Z,0.89
2022-12-08T20:26:17.439Z,0.94
2022-12-08T20:28:47.123Z,0.93
2022-12-08T20:31:24.883Z,0.90
2022-12-08T20:33:57.323Z,0.90
2022-12-08T20:36:26.942Z,0.87
2022-12-08T20:38:57.430Z,0.85
2022-12-08T20:41:27.356Z,0.76
2022-12-08T20:43:56.935Z,0.78
2022-12-08T20:46:26.522Z,0.69
2022-12-08T20:49:01.219Z,0.63
2022-12-08T20:51:32.201Z,0.63
2022-12-08T20:54:02.469Z,0.56
2022-12-08T20:56:32.201Z,0.54
2022-12-08T20:59:02.413Z,0.54
2022-12-08T21:01:32.139Z,0.54
2022-12-08T21:04:04.623Z,0.53
2022-12-08T21:06:34.445Z,0.52
2022-12-08T21:09:04.248Z,0.45
2022-12-08T21:11:34.124Z,0.45
2022-12-08T21:14:03.901Z,0.42
2022-12-08T21:16:33.966Z,0.39
2022-12-08T21:19:06.445Z,0.38
2022-12-08T21:21:36.490Z,0.34
2022-12-08T21:24:06.883Z,0.31
2022-12-08T21:26:36.587Z,0.24
2022-12-08T21:29:06.937Z,0.26
2022-12-08T21:31:36.713Z,0.24
2022-12-08T21:34:08.909Z,0.19
2022-12-08T21:36:38.509Z,0.18
2022-12-08T21:39:12.828Z,0.20
2022-12-08T21:41:55.081Z,0.16
2022-12-08T21:44:24.665Z,0.08
2022-12-08T21:46:55.095Z,0.08
2022-12-08T21:49:27.543Z,0.06
2022-12-08T21:51:57.583Z,0.09
2022-12-08T21:54:27.448Z,0.07
2022-12-08T21:56:57.446Z,0.02
2022-12-08T21:59:27.227Z,0.05
2022-12-08T22:01:56.921Z,0.02
2022-12-08T22:04:29.321Z,0.00
2022-12-08T22:06:59.363Z,-0.02
2022-12-08T22:09:29.039Z,0.02
2022-12-08T22:11:58.728Z,-0.09
2022-12-08T22:14:28.366Z,-0.10
2022-12-08T22:16:57.999Z,-0.10
2022-12-08T22:19:30.268Z,-0.16
2022-12-08T22:21:59.952Z,-0.19
2022-12-08T22:24:29.745Z,-0.16
2022-12-08T22:26:59.576Z,-0.19
2022-12-08T22:29:29.311Z,-0.20
2022-12-08T22:31:59.091Z,-0.23
2022-12-08T22:34:31.388Z,-0.22
2022-12-08T22:37:01.098Z,-0.25
2022-12-08T22:39:30.775Z,-0.24
2022-12-08T22:42:00.414Z,-0.27
2022-12-08T22:44:30.326Z,-0.25
2022-12-08T22:47:00.385Z,-0.29
2022-12-08T22:49:32.912Z,-0.27
2022-12-08T22:52:02.576Z,-0.33
2022-12-08T22:54:32.515Z,-0.36
2022-12-08T22:57:02.282Z,-0.44
2022-12-08T22:59:33.367Z,-0.42
2022-12-08T23:02:03.132Z,-0.42
2022-12-08T23:04:35.688Z,-0.46
2022-12-08T23:07:06.049Z,-0.33
2022-12-08T23:09:35.550Z,-0.42
2022-12-08T23:12:05.091Z,-0.43
2022-12-08T23:14:34.566Z,-0.46
2022-12-08T23:17:06.303Z,-0.44
2022-12-08T23:19:41.550Z,-0.51
2022-12-08T23:22:11.092Z,-0.50
2022-12-08T23:24:40.568Z,-0.46
2022-12-08T23:27:10.285Z,-0.52
2022-12-08T23:29:40.402Z,-0.58
2022-12-08T23:32:09.958Z,-0.57
2022-12-08T23:34:42.226Z,-0.68
2022-12-08T23:37:11.768Z,-0.65
2022-12-08T23:39:41.275Z,-0.66
2022-12-08T23:42:11.106Z,-0.70
2022-12-08T23:44:40.739Z,-0.78
2022-12-08T23:47:10.403Z,-0.78
2022-12-08T23:49:42.601Z,-0.80
2022-12-08T23:52:14.835Z,-0.80
2022-12-08T23:54:44.921Z,-0.79
2022-12-08T23:57:14.744Z,-0.79
2022-12-08T23:59:44.269Z,-0.86
